Time;durP1;ratioP1;P1;durP2;ratioP2;P2;SDS_P1;SDS_P2;PMS_P1;PMS_P2;Temp;Humidity;BMP_temperature;BMP_pressure;BME280_temperature;BME280_humidity;BME280_pressure;Samples;Min_cycle;Max_cycle;Signal;HPM_P1;HPM_P2
2023/12/17 00:01:25;;;;;;;8.50;1.40;;;10.10;99.90;;;;;;4983615;28;20061;-78
2023/12/17 00:03:51;;;;;;;8.82;1.75;;;10.10;99.90;;;;;;4990777;28;20037;-78
2023/12/17 00:06:17;;;;;;;3.92;1.55;;;10.10;99.90;;;;;;4994158;28;20030;-78
2023/12/17 00:08:43;;;;;;;5.38;1.25;;;10.10;99.90;;;;;;4994392;28;20054;-80
2023/12/17 00:11:09;;;;;;;6.03;1.70;;;10.10;99.90;;;;;;4994493;28;20038;-75
2023/12/17 00:13:35;;;;;;;5.63;1.38;;;10.10;99.90;;;;;;4990969;28;20077;-76
2023/12/17 00:16:02;;;;;;;9.80;1.63;;;10.10;99.90;;;;;;4994635;28;20069;-78
2023/12/17 00:18:27;;;;;;;4.32;1.67;;;10.10;99.90;;;;;;4988863;28;20027;-78
2023/12/17 00:20:53;;;;;;;5.22;1.23;;;10.10;99.90;;;;;;4997432;28;20058;-76
2023/12/17 00:23:19;;;;;;;4.78;1.48;;;10.10;99.90;;;;;;4981744;28;20095;-78
2023/12/17 00:25:44;;;;;;;6.40;1.42;;;10.20;99.90;;;;;;4974837;28;20088;-78
2023/12/17 00:28:10;;;;;;;5.65;1.40;;;10.20;99.90;;;;;;5006217;28;20093;-77
2023/12/17 00:30:35;;;;;;;6.57;1.48;;;10.10;99.90;;;;;;4975233;28;20164;-78
2023/12/17 00:33:01;;;;;;;4.45;1.73;;;10.10;99.90;;;;;;4983488;28;20042;-78
2023/12/17 00:35:27;;;;;;;6.47;1.77;;;10.10;99.90;;;;;;4993285;28;20039;-78
2023/12/17 00:37:52;;;;;;;4.20;1.23;;;10.00;99.90;;;;;;4994781;28;20045;-78
2023/12/17 00:40:18;;;;;;;6.38;1.60;;;10.10;99.90;;;;;;5012072;28;20081;-78
2023/12/17 00:42:44;;;;;;;7.32;1.30;;;10.10;99.90;;;;;;4993985;28;20029;-77
2023/12/17 00:45:10;;;;;;;3.78;1.38;;;10.10;99.90;;;;;;4989800;28;20397;-79
2023/12/17 00:47:35;;;;;;;3.72;1.40;;;10.10;99.90;;;;;;5012672;28;20469;-78
2023/12/17 00:50:01;;;;;;;7.53;1.88;;;10.10;99.90;;;;;;5004479;28;20168;-76
2023/12/17 00:52:27;;;;;;;4.10;1.52;;;10.10;99.90;;;;;;4991994;28;20494;-79
2023/12/17 00:54:52;;;;;;;5.28;1.38;;;10.10;99.90;;;;;;5001948;28;20065;-78
2023/12/17 00:57:18;;;;;;;6.30;2.03;;;10.20;99.90;;;;;;4998814;28;20034;-76
2023/12/17 00:59:44;;;;;;;4.43;1.73;;;10.10;99.90;;;;;;5000193;28;20065;-78
2023/12/17 01:02:09;;;;;;;5.63;1.52;;;10.10;99.90;;;;;;5000305;28;20072;-77
2023/12/17 01:04:35;;;;;;;3.13;1.55;;;10.10;99.90;;;;;;4995362;28;20641;-78
2023/12/17 01:07:00;;;;;;;4.40;1.35;;;10.10;99.90;;;;;;4990965;28;20454;-75
2023/12/17 01:09:26;;;;;;;9.00;1.63;;;10.10;99.90;;;;;;4990006;28;20030;-76
2023/12/17 01:11:51;;;;;;;5.95;1.55;;;10.10;99.90;;;;;;4989379;28;20089;-77
2023/12/17 01:14:17;;;;;;;3.92;1.92;;;10.10;99.90;;;;;;5000751;28;20426;-78
2023/12/17 01:16:43;;;;;;;6.78;1.83;;;10.10;99.90;;;;;;5003011;28;20122;-78
2023/12/17 01:19:08;;;;;;;4.38;1.35;;;10.10;99.90;;;;;;4991948;28;20125;-79
2023/12/17 01:21:34;;;;;;;2.60;1.40;;;10.10;99.90;;;;;;5010805;28;20096;-79
2023/12/17 01:23:59;;;;;;;6.13;1.38;;;10.10;99.90;;;;;;4978722;28;20038;-77
2023/12/17 01:26:29;;;;;;;5.72;1.65;;;10.10;99.90;;;;;;4997808;28;20054;-79
2023/12/17 01:28:58;;;;;;;6.20;1.50;;;10.10;99.90;;;;;;4989777;28;20123;-78
2023/12/17 01:31:23;;;;;;;7.25;2.03;;;10.00;99.90;;;;;;4986039;28;20096;-78
2023/12/17 01:33:49;;;;;;;6.95;1.30;;;10.10;99.90;;;;;;5004379;28;20045;-76
2023/12/17 01:36:15;;;;;;;12.00;2.05;;;10.10;99.90;;;;;;5001621;28;20042;-78
2023/12/17 01:38:40;;;;;;;7.35;1.70;;;10.10;99.90;;;;;;4979256;28;20030;-77
2023/12/17 01:41:08;;;;;;;3.13;1.45;;;10.00;99.90;;;;;;4998194;28;20398;-76
2023/12/17 01:43:34;;;;;;;3.95;1.35;;;10.10;99.90;;;;;;5013190;28;20383;-78
2023/12/17 01:46:00;;;;;;;2.70;1.13;;;10.10;99.90;;;;;;5010304;28;20037;-78
2023/12/17 01:48:26;;;;;;;4.72;1.48;;;10.10;99.90;;;;;;5007350;28;20440;-78
2023/12/17 01:50:54;;;;;;;6.07;1.42;;;10.10;99.90;;;;;;4996423;28;20034;-78
2023/12/17 01:53:20;;;;;;;4.72;1.30;;;10.00;99.90;;;;;;4975962;28;20034;-79
2023/12/17 01:55:48;;;;;;;4.18;1.60;;;10.00;99.90;;;;;;4999953;28;20064;-78
2023/12/17 01:58:15;;;;;;;5.18;1.25;;;10.00;99.90;;;;;;5017837;28;20046;-79
2023/12/17 02:00:41;;;;;;;6.88;2.35;;;10.00;99.90;;;;;;4993865;28;20031;-76
2023/12/17 02:03:06;;;;;;;2.58;1.17;;;10.00;99.90;;;;;;5005424;28;20038;-79
2023/12/17 02:05:33;;;;;;;4.68;1.52;;;10.00;99.90;;;;;;4999873;28;20121;-78
2023/12/17 02:07:59;;;;;;;3.15;1.35;;;10.00;99.90;;;;;;5007644;28;20045;-78
2023/12/17 02:10:26;;;;;;;5.65;1.40;;;10.00;99.90;;;;;;4986544;28;20030;-77
2023/12/17 02:12:51;;;;;;;2.85;1.33;;;10.00;99.90;;;;;;4993072;28;20034;-79
2023/12/17 02:15:17;;;;;;;5.80;1.60;;;10.10;99.90;;;;;;5005845;28;20137;-77
2023/12/17 02:17:43;;;;;;;4.20;1.35;;;10.10;99.90;;;;;;4997974;28;20054;-78
2023/12/17 02:20:08;;;;;;;5.10;1.50;;;10.00;99.90;;;;;;4984444;28;20041;-79
2023/12/17 02:22:34;;;;;;;3.20;0.95;;;10.00;99.90;;;;;;5010086;28;20546;-78
2023/12/17 02:25:00;;;;;;;4.90;1.75;;;10.10;99.90;;;;;;5002080;28;20120;-78
2023/12/17 02:27:26;;;;;;;4.03;1.20;;;10.10;99.90;;;;;;5011398;28;20126;-77
2023/12/17 02:29:53;;;;;;;6.43;1.50;;;10.00;99.90;;;;;;5801931;23;20025;-73
2023/12/17 02:32:23;;;;;;;1.98;1.00;;;10.10;99.90;;;;;;4988899;28;20057;-74
2023/12/17 02:34:49;;;;;;;1.58;0.95;;;10.10;99.90;;;;;;4993187;28;20030;-74
2023/12/17 02:37:16;;;;;;;3.17;1.38;;;10.10;99.90;;;;;;4991938;28;20045;-75
2023/12/17 02:39:41;;;;;;;4.05;1.10;;;10.10;99.90;;;;;;5016432;28;20124;-74
2023/12/17 02:42:07;;;;;;;2.00;1.33;;;10.10;99.90;;;;;;5024494;28;20124;-74
2023/12/17 02:44:33;;;;;;;7.60;1.73;;;10.10;99.90;;;;;;5017648;28;20036;-73
2023/12/17 02:46:59;;;;;;;5.95;1.23;;;10.10;99.90;;;;;;5003251;28;20847;-73
2023/12/17 02:49:25;;;;;;;1.67;1.17;;;10.10;99.90;;;;;;5018920;28;20033;-73
2023/12/17 02:51:50;;;;;;;7.13;1.75;;;10.10;99.90;;;;;;5026167;28;20026;-74
2023/12/17 02:54:19;;;;;;;4.13;1.00;;;10.10;99.90;;;;;;5003203;28;20116;-74
2023/12/17 02:56:46;;;;;;;3.05;0.98;;;10.10;99.90;;;;;;5001254;28;20121;-72
2023/12/17 02:59:13;;;;;;;1.20;0.73;;;10.10;99.90;;;;;;5005111;28;20053;-73
2023/12/17 03:01:43;;;;;;;4.40;1.10;;;10.10;99.90;;;;;;5019910;28;20557;-74
2023/12/17 03:04:10;;;;;;;4.05;0.93;;;10.20;99.90;;;;;;5016658;28;20057;-75
2023/12/17 03:06:37;;;;;;;2.95;0.80;;;10.20;99.90;;;;;;5002876;28;20160;-75
2023/12/17 03:09:02;;;;;;;3.13;0.85;;;10.10;99.90;;;;;;4995614;28;20507;-73
2023/12/17 03:11:28;;;;;;;7.00;1.08;;;10.20;99.90;;;;;;5019813;28;20041;-74
2023/12/17 03:13:54;;;;;;;10.15;0.98;;;10.10;99.90;;;;;;5000963;28;20033;-75
2023/12/17 03:16:20;;;;;;;3.67;1.70;;;10.10;99.90;;;;;;5001142;28;20034;-73
2023/12/17 03:18:46;;;;;;;4.60;1.77;;;10.10;99.90;;;;;;5019099;28;20235;-73
2023/12/17 03:21:12;;;;;;;5.18;1.60;;;10.10;99.90;;;;;;4999820;28;20045;-74
2023/12/17 03:23:38;;;;;;;8.60;1.55;;;10.10;99.90;;;;;;5002079;28;20586;-75
2023/12/17 03:26:03;;;;;;;7.55;2.05;;;10.10;99.90;;;;;;5016867;28;20057;-73
2023/12/17 03:28:29;;;;;;;2.90;1.42;;;10.10;99.90;;;;;;4996960;28;20490;-73
2023/12/17 03:30:55;;;;;;;7.85;2.22;;;10.10;99.90;;;;;;5019453;28;20119;-72
2023/12/17 03:33:21;;;;;;;12.00;2.75;;;10.10;99.90;;;;;;4996678;28;20095;-74
2023/12/17 03:35:49;;;;;;;7.70;1.80;;;10.10;99.90;;;;;;4999114;28;20461;-75
2023/12/17 03:38:15;;;;;;;7.93;2.10;;;10.10;99.90;;;;;;5025150;28;20469;-75
2023/12/17 03:40:41;;;;;;;10.85;2.47;;;10.10;99.90;;;;;;5001900;28;20042;-74
2023/12/17 03:43:07;;;;;;;7.07;2.47;;;10.10;99.90;;;;;;4999401;28;20108;-74
2023/12/17 03:45:33;;;;;;;8.88;2.33;;;10.10;99.90;;;;;;5016902;28;20072;-73
2023/12/17 03:48:00;;;;;;;11.50;2.78;;;10.10;99.90;;;;;;5022085;28;20053;-73
2023/12/17 03:50:25;;;;;;;7.10;2.15;;;10.10;99.90;;;;;;5019693;28;20490;-73
2023/12/17 03:52:51;;;;;;;9.27;2.35;;;10.00;99.90;;;;;;4998754;28;20040;-74
2023/12/17 03:55:17;;;;;;;5.65;2.17;;;10.00;99.90;;;;;;5018437;28;20077;-73
2023/12/17 03:57:45;;;;;;;6.22;1.80;;;10.00;99.90;;;;;;5000513;28;20051;-73
2023/12/17 04:00:11;;;;;;;11.30;3.35;;;10.00;99.90;;;;;;5016736;28;20038;-74
2023/12/17 04:02:37;;;;;;;9.93;2.20;;;10.00;99.90;;;;;;5019360;28;20895;-73
2023/12/17 04:05:03;;;;;;;7.82;2.60;;;10.00;99.90;;;;;;4998858;28;20034;-73
2023/12/17 04:07:30;;;;;;;11.15;2.13;;;10.00;99.90;;;;;;4990087;28;20069;-74
2023/12/17 04:09:57;;;;;;;11.50;2.90;;;10.00;99.90;;;;;;4998694;28;20323;-73
2023/12/17 04:12:22;;;;;;;7.82;2.40;;;10.10;99.90;;;;;;5000758;28;20038;-74
2023/12/17 04:14:48;;;;;;;8.43;2.22;;;10.10;99.90;;;;;;4999178;28;20095;-75
2023/12/17 04:17:14;;;;;;;8.30;2.70;;;10.10;99.90;;;;;;4999400;28;20038;-74
2023/12/17 04:19:39;;;;;;;11.90;2.45;;;10.00;99.90;;;;;;5000349;28;20055;-74
2023/12/17 04:22:05;;;;;;;11.60;3.20;;;10.00;99.90;;;;;;4998030;28;20029;-74
2023/12/17 04:24:30;;;;;;;12.80;3.10;;;10.00;99.90;;;;;;5001976;28;20057;-73
2023/12/17 04:26:56;;;;;;;9.80;3.05;;;10.00;99.90;;;;;;4998434;28;20129;-73
2023/12/17 04:29:22;;;;;;;8.05;2.75;;;10.00;99.90;;;;;;4996525;28;20117;-74
2023/12/17 04:31:47;;;;;;;11.00;2.95;;;10.00;99.90;;;;;;5017431;28;20392;-74
2023/12/17 04:34:13;;;;;;;10.82;3.25;;;10.00;99.90;;;;;;4999552;28;20037;-72
2023/12/17 04:36:42;;;;;;;14.20;3.05;;;10.00;99.90;;;;;;5016743;28;20088;-73
2023/12/17 04:39:09;;;;;;;6.57;2.80;;;10.00;99.90;;;;;;5000550;28;20030;-74
2023/12/17 04:41:38;;;;;;;9.30;3.35;;;10.00;99.90;;;;;;4996165;28;20723;-73
2023/12/17 04:44:04;;;;;;;9.32;2.83;;;10.00;99.90;;;;;;5017662;28;20022;-74
2023/12/17 04:46:30;;;;;;;12.02;3.28;;;10.00;99.90;;;;;;5018718;28;20044;-74
2023/12/17 04:48:56;;;;;;;11.65;2.97;;;9.90;99.90;;;;;;4993073;28;20037;-74
2023/12/17 04:51:22;;;;;;;10.90;3.22;;;9.90;99.90;;;;;;4997732;28;20037;-74
2023/12/17 04:53:49;;;;;;;6.43;2.70;;;9.90;99.90;;;;;;4992452;28;20030;-74
2023/12/17 04:56:15;;;;;;;13.20;3.65;;;9.90;99.90;;;;;;4999220;28;20044;-75
2023/12/17 04:58:40;;;;;;;11.57;2.65;;;9.90;99.90;;;;;;4998497;28;20038;-74
2023/12/17 05:01:06;;;;;;;9.07;2.85;;;9.90;99.90;;;;;;5000832;28;20037;-73
2023/12/17 05:03:32;;;;;;;12.68;3.78;;;9.90;99.90;;;;;;5000254;28;20099;-74
2023/12/17 05:05:57;;;;;;;9.52;3.30;;;9.90;99.90;;;;;;5015555;28;20088;-74
2023/12/17 05:08:24;;;;;;;11.70;2.83;;;9.90;99.90;;;;;;5024579;28;20033;-74
2023/12/17 05:10:49;;;;;;;11.57;3.05;;;9.90;99.90;;;;;;5000036;28;20420;-73
2023/12/17 05:13:15;;;;;;;9.07;2.60;;;10.00;99.90;;;;;;5016130;28;20033;-73
2023/12/17 05:15:41;;;;;;;11.95;2.20;;;9.90;99.90;;;;;;4998636;28;20080;-73
2023/12/17 05:18:06;;;;;;;19.25;3.22;;;9.90;99.90;;;;;;4996034;28;20034;-73
2023/12/17 05:20:32;;;;;;;8.63;2.90;;;9.90;99.90;;;;;;4999705;28;20655;-75
2023/12/17 05:22:57;;;;;;;10.98;1.98;;;9.90;99.90;;;;;;4997658;28;20042;-73
2023/12/17 05:25:23;;;;;;;10.25;2.13;;;9.90;99.90;;;;;;5025136;28;20070;-74
2023/12/17 05:27:48;;;;;;;9.55;1.95;;;9.90;99.90;;;;;;5014762;28;20037;-73
2023/12/17 05:30:14;;;;;;;11.27;1.75;;;9.90;99.90;;;;;;4999567;28;20038;-73
2023/12/17 05:32:39;;;;;;;7.50;2.00;;;9.80;99.90;;;;;;5024176;28;20048;-73
2023/12/17 05:35:06;;;;;;;8.48;2.95;;;9.90;99.90;;;;;;5000456;28;20042;-75
2023/12/17 05:37:31;;;;;;;7.45;2.40;;;9.80;99.90;;;;;;5000383;28;20053;-73
2023/12/17 05:39:57;;;;;;;8.95;2.53;;;9.80;99.90;;;;;;5014972;28;20646;-74
2023/12/17 05:42:22;;;;;;;12.50;2.53;;;9.80;99.90;;;;;;4999864;28;20041;-74
2023/12/17 05:44:48;;;;;;;12.95;2.75;;;9.80;99.90;;;;;;5015051;28;20094;-73
2023/12/17 05:47:14;;;;;;;10.82;2.95;;;9.90;99.90;;;;;;4995636;28;20508;-73
2023/12/17 05:49:39;;;;;;;10.70;2.80;;;9.90;99.90;;;;;;5001751;28;20121;-72
2023/12/17 05:52:06;;;;;;;17.67;3.15;;;9.90;99.90;;;;;;4997703;28;20029;-75
2023/12/17 05:54:32;;;;;;;24.05;5.13;;;9.80;99.90;;;;;;4999183;28;20044;-75
2023/12/17 05:56:57;;;;;;;11.07;2.75;;;9.80;99.90;;;;;;4997383;28;20034;-73
2023/12/17 05:59:23;;;;;;;13.20;3.65;;;9.80;99.90;;;;;;4996981;28;20025;-72
2023/12/17 06:01:49;;;;;;;11.45;4.35;;;9.90;99.90;;;;;;4999447;28;20128;-73
2023/12/17 06:04:15;;;;;;;6.75;3.15;;;9.80;99.90;;;;;;4994094;28;20132;-73
2023/12/17 06:06:40;;;;;;;10.77;4.93;;;9.80;99.90;;;;;;5021219;28;20038;-74
2023/12/17 06:09:07;;;;;;;13.48;4.57;;;9.80;99.90;;;;;;4997703;28;20033;-75
2023/12/17 06:11:32;;;;;;;11.48;3.42;;;9.80;99.90;;;;;;4999759;28;20038;-74
2023/12/17 06:13:58;;;;;;;11.48;4.15;;;9.80;99.90;;;;;;5017959;28;20045;-74
2023/12/17 06:16:23;;;;;;;7.97;3.67;;;9.80;99.90;;;;;;5014205;28;20120;-72
2023/12/17 06:18:50;;;;;;;11.05;4.32;;;9.80;99.90;;;;;;4997389;28;20860;-75
2023/12/17 06:21:24;;;;;;;10.77;3.53;;;9.80;99.90;;;;;;5001408;28;20089;-75
2023/12/17 06:23:50;;;;;;;13.43;4.78;;;9.80;99.90;;;;;;5008450;28;20580;-74
2023/12/17 06:26:19;;;;;;;14.27;4.15;;;9.80;99.90;;;;;;5002833;28;20075;-73
2023/12/17 06:28:45;;;;;;;13.73;4.72;;;9.80;99.90;;;;;;5021274;28;20517;-73
2023/12/17 06:31:11;;;;;;;9.45;4.07;;;9.80;99.90;;;;;;5001844;28;20069;-74
2023/12/17 06:33:36;;;;;;;12.70;4.15;;;9.80;99.90;;;;;;5003273;28;20058;-74
2023/12/17 06:36:02;;;;;;;11.63;3.85;;;9.90;99.90;;;;;;5002826;28;20041;-74
2023/12/17 06:38:28;;;;;;;10.65;4.68;;;9.90;99.90;;;;;;4999369;28;20026;-76
2023/12/17 06:40:54;;;;;;;14.55;4.88;;;9.90;99.90;;;;;;5000495;28;20097;-75
2023/12/17 06:43:20;;;;;;;12.32;4.97;;;9.80;99.90;;;;;;5016118;28;20034;-74
2023/12/17 06:45:45;;;;;;;19.63;5.28;;;9.80;99.90;;;;;;5017837;28;20057;-73
2023/12/17 06:48:11;;;;;;;23.45;6.55;;;9.80;99.90;;;;;;5027287;28;20072;-73
2023/12/17 06:50:36;;;;;;;13.77;6.10;;;9.80;99.90;;;;;;5003040;28;20382;-73
2023/12/17 06:53:02;;;;;;;17.42;7.82;;;9.80;99.90;;;;;;5002282;28;20128;-74
2023/12/17 06:55:27;;;;;;;16.05;7.40;;;9.80;99.90;;;;;;4998890;28;20092;-74
2023/12/17 06:57:53;;;;;;;15.50;7.20;;;9.80;99.90;;;;;;5000017;28;20030;-72
2023/12/17 07:00:19;;;;;;;23.25;8.07;;;9.80;99.90;;;;;;4999717;28;20026;-74
2023/12/17 07:02:44;;;;;;;14.68;6.78;;;9.80;99.90;;;;;;5018496;28;20091;-73
2023/12/17 07:05:11;;;;;;;18.60;8.02;;;9.80;99.90;;;;;;5002068;28;20535;-74
2023/12/17 07:07:36;;;;;;;32.65;8.85;;;9.80;99.90;;;;;;5001098;28;20176;-74
2023/12/17 07:10:02;;;;;;;18.05;7.90;;;9.80;99.90;;;;;;5000727;28;20521;-74
2023/12/17 07:12:28;;;;;;;18.55;7.38;;;9.80;99.90;;;;;;5003037;28;20026;-76
2023/12/17 07:14:54;;;;;;;20.80;6.93;;;9.80;99.90;;;;;;5008357;28;20100;-73
2023/12/17 07:17:19;;;;;;;16.98;6.85;;;9.80;99.90;;;;;;5014992;28;20040;-73
2023/12/17 07:19:45;;;;;;;15.63;6.47;;;9.80;99.90;;;;;;5001976;28;20029;-73
2023/12/17 07:22:11;;;;;;;13.02;6.00;;;9.80;99.90;;;;;;4999871;28;20040;-73
2023/12/17 07:24:36;;;;;;;18.65;5.40;;;9.80;99.90;;;;;;5017415;28;20548;-74
2023/12/17 07:27:02;;;;;;;12.70;5.60;;;9.80;99.90;;;;;;5018810;28;20120;-72
2023/12/17 07:29:27;;;;;;;13.88;5.05;;;9.80;99.90;;;;;;4999982;28;20030;-76
2023/12/17 07:31:53;;;;;;;14.02;5.10;;;9.80;99.90;;;;;;4995538;28;20541;-74
2023/12/17 07:34:19;;;;;;;11.82;5.20;;;9.70;99.90;;;;;;4995118;28;20092;-73
2023/12/17 07:36:45;;;;;;;15.98;4.90;;;9.80;99.90;;;;;;5011793;28;20037;-74
2023/12/17 07:39:10;;;;;;;9.43;4.10;;;9.70;99.90;;;;;;4993632;28;20041;-74
2023/12/17 07:41:36;;;;;;;12.40;4.65;;;9.70;99.90;;;;;;4996241;28;20124;-72
2023/12/17 07:44:02;;;;;;;11.32;4.70;;;9.70;99.90;;;;;;4996919;28;20474;-73
2023/12/17 07:46:27;;;;;;;9.98;4.35;;;9.70;99.90;;;;;;5000744;28;20371;-75
2023/12/17 07:48:53;;;;;;;13.38;5.13;;;9.60;99.90;;;;;;5002145;28;20033;-74
2023/12/17 07:51:18;;;;;;;13.82;4.13;;;9.70;99.90;;;;;;5016277;28;20033;-74
2023/12/17 07:53:44;;;;;;;13.48;4.28;;;9.60;99.90;;;;;;5002343;28;20068;-73
2023/12/17 07:56:10;;;;;;;13.00;4.85;;;9.70;99.90;;;;;;5002480;28;20041;-74
2023/12/17 07:58:35;;;;;;;11.70;4.55;;;9.60;99.90;;;;;;4995799;28;20037;-71
2023/12/17 08:01:01;;;;;;;9.90;4.00;;;9.70;99.90;;;;;;4998125;28;20041;-71
2023/12/17 08:03:27;;;;;;;10.05;4.07;;;9.70;99.90;;;;;;5014019;28;20033;-74
2023/12/17 08:05:52;;;;;;;12.98;3.70;;;9.70;99.90;;;;;;5000630;28;20093;-73
2023/12/17 08:08:22;;;;;;;12.52;4.53;;;9.70;99.90;;;;;;5002972;28;20045;-75
2023/12/17 08:10:47;;;;;;;10.93;4.00;;;9.70;99.90;;;;;;4993337;28;20079;-73
2023/12/17 08:13:13;;;;;;;9.70;3.95;;;9.60;99.90;;;;;;5011236;28;20042;-73
2023/12/17 08:15:38;;;;;;;8.68;3.55;;;9.70;99.90;;;;;;4996726;28;20037;-74
2023/12/17 08:18:04;;;;;;;8.77;3.47;;;9.60;99.90;;;;;;4998612;28;20038;-74
2023/12/17 08:20:29;;;;;;;17.58;4.72;;;9.60;99.90;;;;;;4994550;28;20101;-73
2023/12/17 08:22:55;;;;;;;12.32;3.92;;;9.60;99.90;;;;;;4998887;28;20183;-74
2023/12/17 08:25:20;;;;;;;12.43;4.10;;;9.60;99.90;;;;;;5018722;28;20046;-74
2023/12/17 08:27:46;;;;;;;9.35;3.78;;;9.60;99.90;;;;;;4993683;28;20045;-74
2023/12/17 08:35:22;;;;;;;9.50;4.38;;;9.50;99.90;;;;;;6126353;22;20077;-76
2023/12/17 08:37:48;;;;;;;7.90;3.72;;;9.50;99.90;;;;;;4966270;28;20042;-76
2023/12/17 08:40:14;;;;;;;10.77;4.10;;;9.50;99.90;;;;;;4967026;28;20035;-75
2023/12/17 08:42:39;;;;;;;17.38;5.28;;;9.50;99.90;;;;;;4973217;28;20038;-76
2023/12/17 08:45:06;;;;;;;12.68;4.45;;;9.50;99.90;;;;;;4972277;28;20495;-78
2023/12/17 08:47:32;;;;;;;14.40;5.10;;;9.40;99.90;;;;;;4967155;28;20046;-77
2023/12/17 08:49:59;;;;;;;12.27;5.22;;;9.50;99.90;;;;;;4966991;28;20035;-76
2023/12/17 08:52:26;;;;;;;14.55;5.57;;;9.40;99.90;;;;;;4980403;28;20065;-77
2023/12/17 08:54:52;;;;;;;13.55;6.55;;;9.40;99.90;;;;;;4988223;28;20030;-77
2023/12/17 08:57:17;;;;;;;16.27;6.85;;;9.40;99.90;;;;;;4986347;28;20544;-76
2023/12/17 08:59:44;;;;;;;17.23;6.95;;;9.50;99.90;;;;;;4986503;28;20027;-77
2023/12/17 09:02:09;;;;;;;17.23;6.65;;;9.40;99.90;;;;;;4987815;28;20042;-77
2023/12/17 09:04:35;;;;;;;16.48;6.15;;;9.40;99.90;;;;;;4983772;28;20077;-76
2023/12/17 09:07:00;;;;;;;18.08;7.57;;;9.40;99.90;;;;;;4986767;28;20042;-76
2023/12/17 09:09:26;;;;;;;19.92;8.15;;;9.40;99.90;;;;;;4987751;28;20034;-77
2023/12/17 09:11:51;;;;;;;21.13;7.45;;;9.40;99.90;;;;;;4978880;28;20065;-78
2023/12/17 09:14:18;;;;;;;16.80;7.85;;;9.40;99.90;;;;;;4975175;28;20037;-77
2023/12/17 09:16:43;;;;;;;17.05;7.78;;;9.40;99.90;;;;;;4987213;28;20030;-78
2023/12/17 09:19:09;;;;;;;18.38;7.38;;;9.40;99.90;;;;;;4987217;28;20041;-76
2023/12/17 09:21:34;;;;;;;17.23;6.60;;;9.30;99.90;;;;;;4987374;28;20411;-76
2023/12/17 09:24:00;;;;;;;18.60;6.57;;;9.40;99.90;;;;;;4988566;28;20077;-78
2023/12/17 09:26:25;;;;;;;20.23;7.72;;;9.40;99.90;;;;;;4987967;28;20073;-76
2023/12/17 09:28:51;;;;;;;18.27;7.13;;;9.40;99.90;;;;;;4987398;28;20057;-76
2023/12/17 09:31:17;;;;;;;23.73;7.88;;;9.40;99.90;;;;;;4984550;28;20027;-77
2023/12/17 09:33:42;;;;;;;17.67;7.85;;;9.30;99.90;;;;;;4980455;28;20053;-77
2023/12/17 09:36:08;;;;;;;18.85;7.72;;;9.30;99.90;;;;;;4981714;28;20039;-78
2023/12/17 09:38:34;;;;;;;19.48;7.97;;;9.30;99.90;;;;;;4970270;28;20023;-78
2023/12/17 09:40:59;;;;;;;18.05;8.02;;;9.30;99.90;;;;;;4968511;28;20055;-77
2023/12/17 09:43:26;;;;;;;22.33;9.52;;;9.40;99.90;;;;;;4966946;28;20051;-77
2023/12/17 09:45:52;;;;;;;25.42;9.10;;;9.40;99.90;;;;;;4968506;28;20066;-77
2023/12/17 09:48:18;;;;;;;20.90;9.05;;;9.40;99.90;;;;;;4968526;28;20494;-77
2023/12/17 09:50:44;;;;;;;17.38;8.18;;;9.50;99.90;;;;;;4982025;28;20038;-77
2023/12/17 09:53:10;;;;;;;22.30;8.80;;;9.50;99.90;;;;;;4987767;28;20038;-77
2023/12/17 09:55:37;;;;;;;22.48;8.40;;;9.40;99.90;;;;;;4989417;28;20088;-77
2023/12/17 09:58:04;;;;;;;19.88;9.07;;;9.40;99.90;;;;;;4976025;28;20118;-78
2023/12/17 10:00:30;;;;;;;26.17;10.45;;;9.40;99.90;;;;;;4983032;28;20502;-76
2023/12/17 10:03:05;;;;;;;24.58;11.10;;;9.40;99.90;;;;;;4988147;28;20034;-77
2023/12/17 10:05:31;;;;;;;29.67;10.98;;;9.30;99.90;;;;;;4989383;28;20516;-77
2023/12/17 10:07:59;;;;;;;25.95;11.57;;;9.40;99.90;;;;;;4992369;28;20030;-76
2023/12/17 10:10:24;;;;;;;28.38;10.65;;;9.30;99.90;;;;;;4991101;28;20041;-77
2023/12/17 10:12:51;;;;;;;27.90;10.52;;;9.30;99.90;;;;;;4989996;28;20027;-77
2023/12/17 10:15:18;;;;;;;33.83;10.20;;;9.20;99.90;;;;;;4990989;28;20390;-77
2023/12/17 10:17:44;;;;;;;30.63;11.30;;;9.30;99.90;;;;;;4990128;28;20038;-77
2023/12/17 10:20:10;;;;;;;23.20;9.93;;;9.30;99.90;;;;;;4989838;28;20030;-77
2023/12/17 10:22:36;;;;;;;26.95;10.30;;;9.30;99.90;;;;;;4991237;28;20113;-77
2023/12/17 10:25:02;;;;;;;28.25;10.80;;;9.20;99.90;;;;;;4990371;28;20117;-78
2023/12/17 10:27:30;;;;;;;25.15;10.98;;;9.30;99.90;;;;;;4990593;28;20058;-77
2023/12/17 10:29:58;;;;;;;27.40;10.73;;;9.20;99.90;;;;;;4975134;28;20030;-78
2023/12/17 10:32:26;;;;;;;24.35;9.93;;;9.30;99.90;;;;;;4977505;28;20026;-77
2023/12/17 10:34:53;;;;;;;26.08;10.80;;;9.30;99.90;;;;;;4991223;28;20205;-79
2023/12/17 10:37:23;;;;;;;21.00;10.15;;;9.20;99.90;;;;;;4985113;28;20469;-78
2023/12/17 10:39:50;;;;;;;18.23;7.53;;;9.20;99.90;;;;;;4974591;28;20034;-77
2023/12/17 10:42:19;;;;;;;22.35;10.57;;;9.20;99.90;;;;;;4969940;28;20034;-76
2023/12/17 10:44:49;;;;;;;25.10;11.18;;;9.20;99.90;;;;;;4968845;28;20031;-78
2023/12/17 10:47:23;;;;;;;20.70;9.27;;;9.30;99.90;;;;;;4966988;28;20038;-77
2023/12/17 10:49:49;;;;;;;20.55;8.95;;;9.30;99.90;;;;;;4970655;28;20026;-77
2023/12/17 10:52:15;;;;;;;21.60;9.75;;;9.30;99.90;;;;;;4969792;28;20394;-77
2023/12/17 10:54:41;;;;;;;21.95;8.57;;;9.30;99.90;;;;;;4967697;28;20031;-76
2023/12/17 10:57:20;;;;;;;22.23;9.35;;;9.30;99.90;;;;;;4970404;28;20053;-76
2023/12/17 10:59:48;;;;;;;20.10;9.25;;;9.30;99.90;;;;;;4970580;28;20124;-77
2023/12/17 11:02:15;;;;;;;20.83;8.60;;;9.30;99.90;;;;;;4970702;28;20022;-77
2023/12/17 11:04:45;;;;;;;23.15;8.90;;;9.40;99.90;;;;;;4974234;28;20132;-78
2023/12/17 11:07:20;;;;;;;20.63;6.18;;;9.40;99.90;;;;;;4988076;28;20053;-79
2023/12/17 11:09:46;;;;;;;18.90;7.65;;;9.50;99.90;;;;;;4974529;28;20039;-78
2023/12/17 11:12:12;;;;;;;19.88;7.63;;;9.50;99.90;;;;;;4970895;28;20038;-75
2023/12/17 11:14:42;;;;;;;18.17;7.75;;;9.40;99.90;;;;;;4968820;28;20082;-76
2023/12/17 11:17:11;;;;;;;18.13;8.00;;;9.40;99.90;;;;;;4970151;28;20030;-76
2023/12/17 11:19:52;;;;;;;23.75;7.43;;;9.40;99.90;;;;;;4968980;28;20031;-77
2023/12/17 11:22:17;;;;;;;19.67;7.50;;;9.40;99.90;;;;;;4970655;28;20031;-77
2023/12/17 11:24:43;;;;;;;16.83;7.30;;;9.40;99.90;;;;;;4970062;28;20384;-78
2023/12/17 11:27:08;;;;;;;20.25;7.82;;;9.40;99.90;;;;;;4969885;28;20458;-76
2023/12/17 11:29:37;;;;;;;18.50;7.63;;;9.40;99.90;;;;;;4975146;28;20176;-76
2023/12/17 11:32:05;;;;;;;20.27;7.13;;;9.40;99.90;;;;;;4983981;28;20045;-77
2023/12/17 11:34:31;;;;;;;17.65;6.70;;;9.40;99.90;;;;;;4978969;28;20026;-76
2023/12/17 11:36:57;;;;;;;18.67;6.88;;;9.40;99.90;;;;;;4979376;28;20122;-78
2023/12/17 11:39:28;;;;;;;18.40;7.03;;;9.40;99.90;;;;;;4969003;28;20030;-78
2023/12/17 11:41:54;;;;;;;16.38;6.97;;;9.40;99.90;;;;;;4978666;28;20474;-76
2023/12/17 11:44:20;;;;;;;19.70;7.43;;;9.40;99.90;;;;;;4968994;28;20027;-76
2023/12/17 11:46:49;;;;;;;17.88;6.93;;;9.40;99.90;;;;;;4970069;28;20047;-76
2023/12/17 11:49:25;;;;;;;24.17;7.57;;;9.40;99.90;;;;;;4979670;28;20042;-77
2023/12/17 11:51:51;;;;;;;23.45;7.13;;;9.40;99.90;;;;;;4987521;28;20030;-76
2023/12/17 11:54:18;;;;;;;17.75;6.97;;;9.40;99.90;;;;;;4982283;28;20026;-77
2023/12/17 11:56:44;;;;;;;22.05;8.15;;;9.50;99.90;;;;;;4974907;28;20651;-76
2023/12/17 11:59:09;;;;;;;29.00;8.32;;;9.50;99.90;;;;;;4987607;28;20117;-77
2023/12/17 12:01:35;;;;;;;20.42;7.38;;;9.50;99.90;;;;;;4985744;28;20043;-77
2023/12/17 12:04:00;;;;;;;21.42;7.57;;;9.50;99.90;;;;;;4989146;28;20030;-76
2023/12/17 12:06:27;;;;;;;20.85;6.68;;;9.50;99.90;;;;;;4973539;28;20042;-77
2023/12/17 12:08:52;;;;;;;17.17;6.32;;;9.50;99.90;;;;;;4950259;28;20133;-76
2023/12/17 12:11:20;;;;;;;17.15;6.45;;;9.50;99.90;;;;;;4949718;28;20946;-77
2023/12/17 12:13:48;;;;;;;16.83;6.00;;;9.50;99.90;;;;;;4964703;28;20067;-76
2023/12/17 12:16:14;;;;;;;17.13;4.45;;;9.60;99.90;;;;;;4947584;28;20394;-78
2023/12/17 12:18:41;;;;;;;12.00;5.35;;;9.60;99.90;;;;;;4972427;28;20042;-75
2023/12/17 12:21:16;;;;;;;15.82;5.82;;;9.50;99.90;;;;;;4988327;28;20037;-76
2023/12/17 12:23:49;;;;;;;19.08;4.10;;;9.50;99.90;;;;;;4988736;28;20042;-75
2023/12/17 12:26:15;;;;;;;10.27;3.25;;;9.60;99.90;;;;;;4971684;28;20500;-77
2023/12/17 12:28:41;;;;;;;20.92;4.43;;;9.60;99.90;;;;;;4981227;28;20130;-79
2023/12/17 12:31:09;;;;;;;11.50;4.18;;;9.60;99.90;;;;;;4967785;28;20490;-77
2023/12/17 12:33:35;;;;;;;14.73;3.85;;;9.50;99.90;;;;;;4966509;28;20050;-75
2023/12/17 12:36:07;;;;;;;13.88;4.63;;;9.60;99.90;;;;;;4968540;28;20030;-77
2023/12/17 12:38:33;;;;;;;14.18;4.15;;;9.60;99.90;;;;;;4966114;28;20043;-75
2023/12/17 12:41:09;;;;;;;12.52;3.85;;;9.60;99.90;;;;;;4967071;28;20035;-77
2023/12/17 12:43:39;;;;;;;15.50;3.40;;;9.70;99.90;;;;;;4966466;28;20063;-76
2023/12/17 12:46:05;;;;;;;9.90;3.72;;;9.60;99.90;;;;;;4968235;28;20646;-76